Hakozaki Maru — JJ3662 — position and weather

sailwx.info

Track history (hours):
 
Tides and Currents Weather Stations Pressure Air Temp Water Temp Dewpoint Dewpoint Depression Visibility Wind Speed Wind Dir Waves Ship Positions

Hakozaki Maru

Last reported at 2018-Feb-05 07:08 UTC. Time now 2018-Feb-22 09:31 UTC.
Position N 34°41' E 135°17'.
Warning: this ship's position is 17 days out of date.

Length 31 m; draft 2.5 m.

Type: Tug. MMSI: 431000322.

Date/timePositionNaut miles runAvg speedWind from/ knotsBaromVisibWave heightAir tempDewpointWater temp
2018-Feb-05 07:08N 34°41' E 135°17'0 0.4
2018-Feb-05 07:00N 34°41' E 135°17'0 0.1
2018-Feb-05 06:30N 34°41' E 135°17'2 1.7
2018-Feb-05 05:30N 34°42' E 135°16'1 1.0
2018-Feb-05 05:01N 34°42' E 135°15'1 1.8
2018-Feb-05 04:30N 34°42' E 135°14'2 4.0
2018-Feb-05 04:00N 34°41' E 135°12'0 0.0
2018-Feb-05 03:30N 34°41' E 135°12'0 0.0
2018-Feb-05 03:00N 34°41' E 135°12'0 0.0
2018-Feb-05 02:30N 34°41' E 135°12'0 0.0
2018-Feb-05 02:00N 34°41' E 135°12'0 0.0
2018-Feb-05 01:30N 34°41' E 135°12'1 1.0
2018-Feb-05 01:00N 34°41' E 135°12'2 3.3
2018-Feb-05 00:30N 34°39' E 135°12'1 2.9
2018-Feb-05 00:00N 34°41' E 135°12'0 0.2
2018-Feb-04 23:30N 34°41' E 135°12'3 5.7
2018-Feb-04 23:00N 34°42' E 135°15'2 3.7
2018-Feb-04 22:30N 34°40' E 135°15'1 1.2
2018-Feb-04 22:01N 34°40' E 135°15'1 1.7
2018-Feb-04 21:30N 34°39' E 135°14'  
Track history (hours):
 
Tides and Currents Weather Stations Pressure Air Temp Water Temp Dewpoint Dewpoint Depression Visibility Wind Speed Wind Dir Waves Ship Positions

Hakozaki Maru

Last reported at 2018-Feb-05 07:08 UTC. Time now 2018-Feb-22 09:31 UTC.
Position N 34°41' E 135°17'.
Warning: this ship's position is 17 days out of date.

Length 31 m; draft 2.5 m.

Type: Tug. MMSI: 431000322.

Date/timePositionNaut miles runAvg speedWind from/ knotsBaromVisibWave heightAir tempDewpointWater temp
2018-Feb-05 07:08N 34°41' E 135°17'0 0.4
2018-Feb-05 07:00N 34°41' E 135°17'0 0.1
2018-Feb-05 06:30N 34°41' E 135°17'2 1.7
2018-Feb-05 05:30N 34°42' E 135°16'1 1.0
2018-Feb-05 05:01N 34°42' E 135°15'1 1.8
2018-Feb-05 04:30N 34°42' E 135°14'2 4.0
2018-Feb-05 04:00N 34°41' E 135°12'0 0.0
2018-Feb-05 03:30N 34°41' E 135°12'0 0.0
2018-Feb-05 03:00N 34°41' E 135°12'0 0.0
2018-Feb-05 02:30N 34°41' E 135°12'0 0.0
2018-Feb-05 02:00N 34°41' E 135°12'0 0.0
2018-Feb-05 01:30N 34°41' E 135°12'1 1.0
2018-Feb-05 01:00N 34°41' E 135°12'2 3.3
2018-Feb-05 00:30N 34°39' E 135°12'1 2.9
2018-Feb-05 00:00N 34°41' E 135°12'0 0.2
2018-Feb-04 23:30N 34°41' E 135°12'3 5.7
2018-Feb-04 23:00N 34°42' E 135°15'2 3.7
2018-Feb-04 22:30N 34°40' E 135°15'1 1.2
2018-Feb-04 22:01N 34°40' E 135°15'1 1.7
2018-Feb-04 21:30N 34°39' E 135°14'  

Dump ship's entire track history